Time;durP1;ratioP1;P1;durP2;ratioP2;P2;SDS_P1;SDS_P2;PMS_P1;PMS_P2;Temp;Humidity;BMP_temperature;BMP_pressure;BME280_temperature;BME280_humidity;BME280_pressure;Samples;Min_cycle;Max_cycle;Signal;HPM_P1;HPM_P2
2023/02/01 00:02:05;;;;;;;18.50;3.70;;;8.40;65.50;;;;;;4957804;28;20088;-84
2023/02/01 00:04:31;;;;;;;13.50;3.63;;;8.40;65.60;;;;;;4964590;28;20042;-84
2023/02/01 00:06:57;;;;;;;12.77;3.90;;;8.40;65.60;;;;;;4946873;28;20136;-84
2023/02/01 00:09:23;;;;;;;16.02;3.25;;;8.30;65.40;;;;;;4942401;28;20031;-84
2023/02/01 00:11:49;;;;;;;15.10;4.05;;;8.40;65.60;;;;;;4942322;28;20039;-83
2023/02/01 00:14:15;;;;;;;14.10;3.50;;;8.30;66.00;;;;;;4956740;28;20038;-84
2023/02/01 00:16:41;;;;;;;13.10;3.58;;;8.30;65.40;;;;;;4946404;28;20154;-84
2023/02/01 00:19:11;;;;;;;14.68;4.35;;;8.30;65.50;;;;;;4942210;29;20035;-83
2023/02/01 00:21:37;;;;;;;13.02;4.35;;;8.30;65.50;;;;;;4958820;28;20439;-83
2023/02/01 00:24:04;;;;;;;13.40;3.70;;;8.30;65.50;;;;;;4944226;28;20047;-82
2023/02/01 00:26:37;;;;;;;13.48;3.85;;;8.30;65.60;;;;;;4945628;28;20047;-81
2023/02/01 00:29:07;;;;;;;10.18;4.25;;;8.30;65.60;;;;;;4933421;28;20046;-82
2023/02/01 00:31:33;;;;;;;16.50;4.00;;;8.30;65.50;;;;;;4945644;28;20318;-83
2023/02/01 00:33:59;;;;;;;19.77;5.25;;;8.30;65.50;;;;;;4928685;29;20031;-83
2023/02/01 00:36:25;;;;;;;20.65;4.45;;;8.40;65.70;;;;;;4939689;28;20053;-83
2023/02/01 00:38:51;;;;;;;17.05;3.78;;;8.30;65.50;;;;;;4944087;28;20031;-83
2023/02/01 00:41:19;;;;;;;18.27;6.13;;;8.40;65.60;;;;;;4944529;28;20141;-82
2023/02/01 00:43:45;;;;;;;19.23;4.00;;;8.30;65.40;;;;;;4943344;29;20043;-83
2023/02/01 00:46:13;;;;;;;12.02;3.60;;;8.30;65.50;;;;;;4941040;28;20171;-82
2023/02/01 00:48:39;;;;;;;16.60;4.93;;;8.30;65.50;;;;;;4923861;29;20282;-83
2023/02/01 00:51:08;;;;;;;16.75;4.40;;;8.30;65.50;;;;;;4924658;29;20381;-83
2023/02/01 00:53:34;;;;;;;13.90;3.47;;;8.20;65.30;;;;;;4937522;28;20039;-82
2023/02/01 00:56:01;;;;;;;14.18;3.97;;;8.30;65.50;;;;;;4942686;29;20526;-82
2023/02/01 00:58:28;;;;;;;14.13;3.67;;;8.20;65.40;;;;;;4942183;29;20027;-81
2023/02/01 01:01:04;;;;;;;12.52;4.13;;;8.20;65.40;;;;;;4944965;28;20050;-82
2023/02/01 01:03:33;;;;;;;17.27;4.35;;;8.20;65.40;;;;;;4942756;29;20067;-82
2023/02/01 01:06:00;;;;;;;13.30;4.60;;;8.20;65.40;;;;;;4944257;28;20035;-80
2023/02/01 01:08:27;;;;;;;16.90;4.25;;;8.20;65.40;;;;;;4942941;29;20035;-80
2023/02/01 01:10:53;;;;;;;12.05;4.00;;;8.10;65.30;;;;;;4941087;29;20077;-81
2023/02/01 01:13:20;;;;;;;12.10;4.05;;;8.10;65.30;;;;;;4931554;29;20046;-80
2023/02/01 01:15:46;;;;;;;13.18;3.72;;;8.10;65.30;;;;;;4945607;28;20039;-80
2023/02/01 01:18:12;;;;;;;12.27;3.88;;;8.10;65.30;;;;;;4939814;29;20078;-81
2023/02/01 01:20:40;;;;;;;14.82;3.95;;;8.10;65.40;;;;;;4940220;29;20631;-80
2023/02/01 01:23:07;;;;;;;14.32;3.78;;;8.00;65.30;;;;;;4945625;28;20106;-80
2023/02/01 01:25:37;;;;;;;16.38;4.60;;;8.00;65.80;;;;;;4943207;29;20038;-82
2023/02/01 01:28:03;;;;;;;13.95;4.38;;;8.00;65.30;;;;;;4938368;29;20059;-82
2023/02/01 01:30:29;;;;;;;13.40;3.83;;;8.00;65.30;;;;;;4939234;29;21438;-81
2023/02/01 01:32:55;;;;;;;18.85;4.28;;;8.00;65.30;;;;;;4943808;28;20047;-82
2023/02/01 01:35:21;;;;;;;13.30;3.50;;;8.00;65.40;;;;;;4926601;29;20114;-81
2023/02/01 01:37:47;;;;;;;10.70;3.47;;;8.00;65.40;;;;;;4943314;29;20472;-81
2023/02/01 01:40:13;;;;;;;11.48;3.33;;;8.00;65.40;;;;;;4940550;29;20585;-82
2023/02/01 01:42:43;;;;;;;16.58;4.57;;;7.90;65.30;;;;;;4944739;28;20048;-82
2023/02/01 01:45:22;;;;;;;15.05;3.47;;;7.90;65.40;;;;;;4935786;29;20056;-81
2023/02/01 01:47:53;;;;;;;16.00;3.72;;;7.90;65.40;;;;;;4943008;28;20027;-81
2023/02/01 01:50:41;;;;;;;14.90;3.67;;;7.90;65.40;;;;;;4929745;29;20033;-81
2023/02/01 01:53:11;;;;;;;16.63;4.15;;;7.90;65.40;;;;;;4941228;28;20153;-81
2023/02/01 01:55:42;;;;;;;16.58;3.58;;;7.90;65.40;;;;;;4948894;28;20039;-81
2023/02/01 01:58:17;;;;;;;17.95;3.75;;;8.00;66.10;;;;;;4940844;29;20115;-80
2023/02/01 02:00:44;;;;;;;11.48;3.60;;;7.90;65.40;;;;;;4941096;29;20027;-81
2023/02/01 02:03:21;;;;;;;13.70;4.07;;;7.90;65.40;;;;;;4941680;29;20050;-81
2023/02/01 02:05:50;;;;;;;11.88;3.28;;;8.00;65.60;;;;;;4943638;28;20531;-81
2023/02/01 02:08:17;;;;;;;15.95;3.80;;;8.00;65.60;;;;;;4939095;29;20073;-81
2023/02/01 02:11:02;;;;;;;15.15;3.58;;;7.90;65.40;;;;;;4940068;29;20169;-80
2023/02/01 02:13:30;;;;;;;14.90;4.18;;;8.00;65.50;;;;;;4942550;29;20035;-78
2023/02/01 02:16:37;;;;;;;15.15;5.07;;;8.00;65.50;;;;;;4941338;29;20035;-81
2023/02/01 02:19:15;;;;;;;12.30;3.65;;;8.00;65.60;;;;;;4909749;28;20074;-79
2023/02/01 02:22:18;;;;;;;18.58;4.65;;;8.00;65.50;;;;;;4938576;29;20384;-80
2023/02/01 02:24:50;;;;;;;;;;;8.00;65.50;;;;;;4931582;29;20097;-80
2023/02/01 02:27:43;;;;;;;18.60;4.25;;;8.00;65.40;;;;;;4936970;28;19917;-81
2023/02/01 02:30:41;;;;;;;12.70;3.88;;;8.00;65.30;;;;;;4934026;29;20398;-80
2023/02/01 02:33:42;;;;;;;16.70;3.60;;;8.00;65.30;;;;;;4933954;29;20518;-80
2023/02/01 02:36:18;;;;;;;15.38;3.65;;;8.10;65.50;;;;;;4932947;29;20047;-79
2023/02/01 02:39:03;;;;;;;13.80;3.63;;;8.00;65.30;;;;;;4939359;29;20042;-79
2023/02/01 02:48:26;;;;;;;13.02;3.83;;;8.00;65.30;;;;;;4948425;28;20039;-79
2023/02/01 03:05:06;;;;;;;19.48;4.47;;;8.10;65.40;;;;;;4938195;29;20121;-81
2023/02/01 03:07:49;;;;;;;12.15;4.05;;;8.10;65.40;;;;;;4950237;29;20422;-82
2023/02/01 03:10:41;;;;;;;12.43;3.85;;;8.10;65.50;;;;;;4944105;29;20514;-81
2023/02/01 03:13:14;;;;;;;13.68;4.05;;;8.10;65.50;;;;;;4929595;29;20050;-81
2023/02/01 03:15:55;;;;;;;13.23;3.67;;;8.10;65.40;;;;;;4950011;29;20031;-81
2023/02/01 03:18:38;;;;;;;14.10;4.45;;;8.10;65.30;;;;;;4950705;28;20066;-80
2023/02/01 03:21:12;;;;;;;14.63;3.80;;;8.10;65.30;;;;;;4951263;29;20640;-81
2023/02/01 03:23:38;;;;;;;11.07;3.38;;;8.20;65.50;;;;;;4948875;28;20078;-80
2023/02/01 03:26:10;;;;;;;16.08;3.72;;;8.20;65.50;;;;;;4948727;29;20553;-80
2023/02/01 03:28:41;;;;;;;19.07;4.03;;;8.20;65.50;;;;;;4947480;29;20044;-80
2023/02/01 03:31:08;;;;;;;12.38;4.40;;;8.20;65.40;;;;;;4945849;28;20777;-80
2023/02/01 03:33:34;;;;;;;13.85;5.00;;;8.20;65.50;;;;;;4946266;29;20033;-78
2023/02/01 03:36:07;;;;;;;12.93;3.13;;;8.20;65.40;;;;;;4948655;29;20515;-78
2023/02/01 03:38:39;;;;;;;17.70;4.22;;;8.30;65.60;;;;;;4948514;29;20032;-79
2023/02/01 03:41:15;;;;;;;15.38;3.90;;;8.30;65.50;;;;;;4947053;29;20031;-79
2023/02/01 03:43:56;;;;;;;11.43;2.97;;;8.30;65.50;;;;;;4957562;28;20040;-81
2023/02/01 03:46:40;;;;;;;12.05;3.90;;;8.40;65.60;;;;;;4943684;28;20031;-81
2023/02/01 03:49:09;;;;;;;19.65;4.47;;;8.40;66.10;;;;;;4947277;29;20669;-80
2023/02/01 03:51:39;;;;;;;14.38;5.43;;;8.40;65.50;;;;;;4948657;29;20027;-80
2023/02/01 03:54:09;;;;;;;14.57;3.08;;;8.40;65.50;;;;;;4943921;29;20399;-78
2023/02/01 03:56:38;;;;;;;12.18;3.45;;;8.50;65.60;;;;;;4931412;29;20436;-78
2023/02/01 03:59:04;;;;;;;14.05;3.92;;;8.50;65.60;;;;;;4948059;29;20463;-77
2023/02/01 04:01:34;;;;;;;13.63;3.85;;;8.50;65.60;;;;;;4947809;29;20131;-78
2023/02/01 04:04:00;;;;;;;15.80;3.97;;;8.50;65.60;;;;;;4947898;29;20560;-78
2023/02/01 04:06:26;;;;;;;12.75;4.30;;;8.50;65.60;;;;;;4945861;29;20035;-77
2023/02/01 04:08:57;;;;;;;12.20;3.92;;;8.50;66.10;;;;;;4943134;29;20488;-79
2023/02/01 04:11:23;;;;;;;16.52;3.70;;;8.60;65.80;;;;;;4944365;29;20043;-79
2023/02/01 04:13:49;;;;;;;13.63;3.53;;;8.50;65.50;;;;;;4950057;28;20039;-79
2023/02/01 04:16:15;;;;;;;22.27;4.80;;;8.60;65.70;;;;;;4942297;28;20027;-80
2023/02/01 04:18:41;;;;;;;14.45;4.25;;;8.60;65.70;;;;;;4953888;28;20107;-79
2023/02/01 04:21:07;;;;;;;14.52;5.03;;;8.60;65.70;;;;;;4940090;28;20491;-80
2023/02/01 04:23:33;;;;;;;13.43;3.30;;;8.60;65.70;;;;;;4947916;29;20110;-79
2023/02/01 04:26:01;;;;;;;14.70;3.97;;;8.60;65.60;;;;;;4949731;28;20042;-79
2023/02/01 04:28:27;;;;;;;12.05;3.95;;;8.60;65.60;;;;;;4942155;28;20595;-80
2023/02/01 04:30:53;;;;;;;16.45;3.97;;;8.60;65.60;;;;;;4939027;28;20049;-79
2023/02/01 04:33:19;;;;;;;13.82;3.78;;;8.70;65.70;;;;;;4949363;28;20035;-79
2023/02/01 04:35:45;;;;;;;17.52;4.28;;;8.70;65.70;;;;;;4949301;28;20476;-80
2023/02/01 04:38:11;;;;;;;14.82;3.33;;;8.70;65.70;;;;;;4947342;29;20507;-80
2023/02/01 04:40:38;;;;;;;20.98;4.68;;;8.70;65.70;;;;;;4949128;28;20033;-81
2023/02/01 04:43:04;;;;;;;18.38;3.97;;;8.70;65.60;;;;;;4946661;29;20047;-80
2023/02/01 04:45:30;;;;;;;19.33;4.38;;;8.70;65.60;;;;;;4949571;28;20474;-80
2023/02/01 04:47:56;;;;;;;13.93;3.78;;;8.80;65.70;;;;;;4946924;28;20434;-80
2023/02/01 04:50:23;;;;;;;14.23;3.85;;;8.80;65.70;;;;;;4939454;28;20034;-80
2023/02/01 04:52:49;;;;;;;11.88;3.13;;;8.80;65.70;;;;;;4949082;28;20130;-80
2023/02/01 04:55:15;;;;;;;14.18;3.80;;;8.80;65.70;;;;;;4947767;28;20046;-80
2023/02/01 04:57:41;;;;;;;14.20;3.80;;;8.80;65.70;;;;;;4935459;28;20262;-78
2023/02/01 05:00:09;;;;;;;13.50;3.45;;;8.80;65.70;;;;;;4937450;29;20027;-79
2023/02/01 05:02:35;;;;;;;13.85;3.60;;;8.80;65.70;;;;;;4949250;28;20474;-79
2023/02/01 05:05:01;;;;;;;13.90;3.80;;;8.80;65.70;;;;;;4943091;29;20190;-81
2023/02/01 05:07:27;;;;;;;16.45;4.95;;;8.80;65.70;;;;;;4943388;28;20043;-78
2023/02/01 05:09:53;;;;;;;14.40;3.97;;;8.80;65.70;;;;;;4944236;28;20039;-77
2023/02/01 05:15:04;;;;;;;14.18;3.58;;;8.80;65.60;;;;;;4940094;28;20031;-78
2023/02/01 05:17:30;;;;;;;12.98;3.47;;;8.80;65.60;;;;;;4945653;29;20046;-77
2023/02/01 05:19:56;;;;;;;12.38;3.92;;;8.80;65.60;;;;;;4948149;28;20090;-77
2023/02/01 05:22:22;;;;;;;16.60;3.45;;;8.80;65.60;;;;;;4946897;29;20031;-78
2023/02/01 05:24:48;;;;;;;13.48;3.65;;;8.80;65.50;;;;;;4946640;29;20112;-77
2023/02/01 05:27:14;;;;;;;11.45;3.25;;;8.80;65.50;;;;;;4948374;28;20582;-78
2023/02/01 05:29:40;;;;;;;14.35;3.35;;;8.90;65.70;;;;;;4940833;28;20411;-78
2023/02/01 05:32:06;;;;;;;13.13;3.65;;;8.90;65.80;;;;;;4948993;28;20143;-77
2023/02/01 05:34:32;;;;;;;16.52;4.30;;;8.90;65.70;;;;;;4948365;28;20039;-77
2023/02/01 05:36:57;;;;;;;12.73;3.42;;;8.90;65.70;;;;;;4946520;29;20122;-77
2023/02/01 05:39:23;;;;;;;15.38;3.90;;;8.90;65.70;;;;;;4955931;28;20458;-76
2023/02/01 05:41:50;;;;;;;9.32;3.20;;;8.90;66.20;;;;;;4941224;28;20487;-77
2023/02/01 05:44:16;;;;;;;11.60;2.97;;;8.80;65.50;;;;;;4943896;29;20043;-76
2023/02/01 05:46:42;;;;;;;15.90;3.10;;;8.80;65.50;;;;;;4944410;28;20043;-75
2023/02/01 05:49:08;;;;;;;14.27;3.40;;;8.80;65.60;;;;;;4940557;29;20520;-78
2023/02/01 05:51:34;;;;;;;17.45;3.25;;;8.80;65.60;;;;;;4943032;29;20039;-77
2023/02/01 05:54:00;;;;;;;17.42;4.63;;;8.80;65.60;;;;;;4943963;28;20090;-76
2023/02/01 05:56:26;;;;;;;9.93;3.90;;;8.80;65.70;;;;;;4942299;29;20047;-77
2023/02/01 05:58:52;;;;;;;11.57;3.45;;;8.70;65.50;;;;;;4943306;28;20051;-77
2023/02/01 06:01:17;;;;;;;14.15;3.58;;;8.70;65.50;;;;;;4944687;28;20972;-77
2023/02/01 06:03:43;;;;;;;15.77;3.25;;;8.60;65.40;;;;;;4939586;29;20043;-77
2023/02/01 06:06:09;;;;;;;12.98;3.42;;;8.60;66.00;;;;;;4942766;28;20412;-78
2023/02/01 06:08:35;;;;;;;11.32;3.80;;;8.60;65.50;;;;;;4944600;28;20036;-79
2023/02/01 06:11:04;;;;;;;13.85;4.13;;;8.60;65.50;;;;;;4942346;29;20039;-82
2023/02/01 06:13:31;;;;;;;15.02;3.75;;;8.60;65.50;;;;;;4939801;28;20042;-79
2023/02/01 06:15:57;;;;;;;17.83;4.10;;;8.60;65.50;;;;;;4944532;29;20491;-80
2023/02/01 06:18:26;;;;;;;10.70;2.72;;;8.50;65.40;;;;;;4951991;28;20094;-80
2023/02/01 06:20:57;;;;;;;11.77;3.05;;;8.50;65.50;;;;;;4942728;28;20530;-80
2023/02/01 06:23:23;;;;;;;17.05;3.40;;;8.50;65.50;;;;;;4945977;29;20082;-81
2023/02/01 06:25:51;;;;;;;15.80;4.30;;;8.50;65.50;;;;;;4946242;28;20039;-81
2023/02/01 06:28:17;;;;;;;14.63;3.60;;;8.50;65.50;;;;;;4934600;28;20058;-80
2023/02/01 06:30:45;;;;;;;13.90;3.42;;;8.40;65.30;;;;;;4943839;29;20485;-81
2023/02/01 06:33:14;;;;;;;15.52;3.83;;;8.40;65.30;;;;;;4927918;29;20507;-82
2023/02/01 06:35:44;;;;;;;13.25;3.60;;;8.40;65.30;;;;;;4947081;29;20480;-78
2023/02/01 06:38:11;;;;;;;12.57;3.70;;;8.40;65.30;;;;;;4939850;28;20090;-76
2023/02/01 06:40:38;;;;;;;13.40;4.32;;;8.40;65.40;;;;;;4946125;28;20035;-75
2023/02/01 06:43:04;;;;;;;12.05;3.75;;;8.40;65.40;;;;;;4944257;28;20670;-77
2023/02/01 06:45:30;;;;;;;11.07;3.75;;;8.30;65.20;;;;;;4930467;29;20047;-77
2023/02/01 06:47:59;;;;;;;11.20;3.20;;;8.30;65.30;;;;;;4939691;28;20035;-77
2023/02/01 06:50:25;;;;;;;14.52;3.60;;;8.30;65.30;;;;;;4946002;28;20042;-79
2023/02/01 06:52:50;;;;;;;13.75;4.07;;;8.30;65.30;;;;;;4927547;29;20044;-78
2023/02/01 06:55:16;;;;;;;11.30;3.67;;;8.30;65.30;;;;;;4950121;28;20027;-77
2023/02/01 06:57:42;;;;;;;16.80;3.30;;;8.20;65.20;;;;;;4945339;28;20090;-76
2023/02/01 07:00:09;;;;;;;13.65;3.75;;;8.20;65.20;;;;;;4945578;29;20066;-78
2023/02/01 07:02:35;;;;;;;21.42;4.65;;;8.20;65.20;;;;;;4946837;29;20541;-80
2023/02/01 07:05:01;;;;;;;20.77;5.47;;;8.20;65.20;;;;;;4947894;28;20043;-85
2023/02/01 07:07:27;;;;;;;14.68;3.53;;;8.20;65.20;;;;;;4948320;29;20064;-81
2023/02/01 07:09:53;;;;;;;23.10;4.55;;;8.20;65.20;;;;;;4944295;29;20065;-82
2023/02/01 07:12:19;;;;;;;13.13;4.22;;;8.20;65.60;;;;;;4943856;28;20069;-80
2023/02/01 07:14:45;;;;;;;19.60;4.95;;;8.30;66.20;;;;;;4946607;28;20031;-77
2023/02/01 07:17:11;;;;;;;14.55;3.75;;;8.40;66.70;;;;;;4945156;28;20027;-77
2023/02/01 07:19:37;;;;;;;11.70;3.38;;;8.50;67.10;;;;;;4945949;28;20443;-76
2023/02/01 07:22:02;;;;;;;16.02;4.22;;;8.60;67.30;;;;;;4946877;28;20126;-77
2023/02/01 07:24:30;;;;;;;16.58;4.10;;;8.70;67.50;;;;;;4943005;29;20031;-78
2023/02/01 07:26:56;;;;;;;17.65;4.45;;;8.90;67.90;;;;;;4952764;28;20563;-76
2023/02/01 07:29:22;;;;;;;18.60;4.72;;;9.00;68.10;;;;;;4944527;28;20400;-79
2023/02/01 07:31:47;;;;;;;19.98;4.75;;;9.10;68.30;;;;;;4943773;28;20050;-78
2023/02/01 07:34:13;;;;;;;18.67;7.03;;;9.20;68.50;;;;;;4945383;28;20738;-78
2023/02/01 07:36:40;;;;;;;17.83;4.03;;;9.30;68.70;;;;;;4944480;29;20042;-78
2023/02/01 07:39:06;;;;;;;16.15;3.35;;;9.50;69.00;;;;;;4951655;28;20031;-78
2023/02/01 07:41:32;;;;;;;16.17;3.53;;;9.50;69.00;;;;;;4945929;28;20051;-78
2023/02/01 07:43:58;;;;;;;17.00;3.38;;;9.60;69.10;;;;;;4943326;28;20054;-78
2023/02/01 07:46:24;;;;;;;16.02;4.30;;;9.70;69.20;;;;;;4939628;28;20054;-78
2023/02/01 07:48:50;;;;;;;12.00;3.33;;;9.80;69.40;;;;;;4942689;28;20062;-79
2023/02/01 07:51:17;;;;;;;14.10;3.33;;;9.90;69.50;;;;;;4952904;28;20119;-80
2023/02/01 07:53:45;;;;;;;15.35;3.40;;;10.00;69.60;;;;;;4963849;28;20038;-79
2023/02/01 07:56:18;;;;;;;14.75;3.50;;;10.00;69.60;;;;;;4952738;28;20023;-80
2023/02/01 07:58:53;;;;;;;14.55;2.95;;;10.10;69.80;;;;;;4932740;28;20468;-80
2023/02/01 08:01:24;;;;;;;12.80;2.83;;;10.20;70.00;;;;;;4961654;28;20058;-81
2023/02/01 08:03:52;;;;;;;11.00;3.15;;;10.30;70.10;;;;;;4962940;28;20043;-83
2023/02/01 08:06:19;;;;;;;11.27;2.92;;;10.40;70.20;;;;;;4940604;28;20031;-83
2023/02/01 08:08:46;;;;;;;14.88;3.63;;;10.60;70.30;;;;;;4936949;29;20239;-83
2023/02/01 08:11:13;;;;;;;11.52;3.83;;;10.70;70.30;;;;;;4949964;28;20034;-82
2023/02/01 08:13:40;;;;;;;12.18;2.63;;;10.80;70.40;;;;;;4946844;28;20043;-83
2023/02/01 08:16:08;;;;;;;15.40;5.07;;;10.90;70.40;;;;;;4957347;28;20802;-83
2023/02/01 08:18:35;;;;;;;14.07;4.97;;;11.00;70.40;;;;;;4945532;28;20055;-82
2023/02/01 08:21:10;;;;;;;13.20;3.17;;;11.10;70.40;;;;;;4938246;28;20031;-82
2023/02/01 08:23:39;;;;;;;16.58;3.42;;;11.20;70.50;;;;;;4951616;28;20527;-80
2023/02/01 08:26:14;;;;;;;13.10;3.55;;;11.30;70.50;;;;;;4946606;28;20308;-85
2023/02/01 08:28:43;;;;;;;18.88;3.53;;;11.40;70.50;;;;;;4941987;28;20046;-79
2023/02/01 08:31:12;;;;;;;15.75;4.18;;;11.50;70.40;;;;;;4954897;28;20026;-80
2023/02/01 08:33:38;;;;;;;10.40;4.10;;;11.70;70.60;;;;;;4960349;28;20042;-80
2023/02/01 08:36:08;;;;;;;12.30;3.65;;;11.70;70.40;;;;;;4935602;28;20132;-79
2023/02/01 08:38:36;;;;;;;15.75;3.45;;;11.80;70.40;;;;;;4942657;28;20495;-81
2023/02/01 08:41:07;;;;;;;10.85;3.83;;;11.90;70.30;;;;;;4943005;29;20086;-82
2023/02/01 08:43:34;;;;;;;13.80;3.67;;;12.00;70.20;;;;;;4942944;28;20047;-82
2023/02/01 08:46:00;;;;;;;12.18;2.63;;;12.10;70.20;;;;;;4928607;28;20027;-82
2023/02/01 08:48:25;;;;;;;11.25;3.47;;;12.20;70.10;;;;;;4928452;29;20110;-81
2023/02/01 08:50:51;;;;;;;14.18;3.42;;;12.30;70.00;;;;;;4934714;28;20135;-82
2023/02/01 08:53:17;;;;;;;10.70;2.35;;;12.40;69.90;;;;;;4946271;28;20039;-84
2023/02/01 08:55:45;;;;;;;15.95;3.83;;;12.50;69.80;;;;;;4950954;28;20042;-83
2023/02/01 08:58:13;;;;;;;15.15;3.92;;;12.70;69.80;;;;;;4944973;28;20118;-83
2023/02/01 09:00:40;;;;;;;12.50;3.28;;;12.80;69.70;;;;;;4941512;28;20032;-83
2023/02/01 09:03:07;;;;;;;14.25;4.03;;;12.90;69.50;;;;;;4953755;28;20042;-82
2023/02/01 09:05:33;;;;;;;9.90;4.20;;;13.00;69.40;;;;;;4909471;29;20031;-83
2023/02/01 09:07:59;;;;;;;15.15;3.25;;;13.10;69.30;;;;;;4942965;29;20037;-83
2023/02/01 09:10:26;;;;;;;11.70;2.78;;;13.20;69.20;;;;;;4937725;28;20043;-80
2023/02/01 09:12:52;;;;;;;8.55;3.03;;;13.30;69.00;;;;;;4944145;28;20561;-78
2023/02/01 09:15:17;;;;;;;10.38;2.53;;;13.40;68.90;;;;;;4945130;28;20109;-82
2023/02/01 09:17:43;;;;;;;9.05;3.42;;;13.60;69.00;;;;;;4942954;28;20423;-81
2023/02/01 09:20:10;;;;;;;11.63;4.28;;;13.70;68.80;;;;;;4944037;28;20046;-82
2023/02/01 09:22:36;;;;;;;9.65;2.92;;;13.70;68.50;;;;;;4943269;29;20039;-81
2023/02/01 09:25:02;;;;;;;12.05;4.53;;;13.80;68.40;;;;;;4938801;28;20061;-82
2023/02/01 09:27:28;;;;;;;8.23;2.00;;;13.90;68.30;;;;;;4942874;29;20039;-82
2023/02/01 09:29:54;;;;;;;13.90;2.63;;;13.90;68.10;;;;;;4944162;28;20140;-84
2023/02/01 09:32:21;;;;;;;8.77;3.33;;;13.90;67.90;;;;;;4944147;29;20039;-83
2023/02/01 09:34:48;;;;;;;9.02;3.22;;;14.00;67.80;;;;;;4938893;28;20380;-82
2023/02/01 09:37:15;;;;;;;11.77;3.60;;;14.00;67.60;;;;;;4945303;28;20035;-81
2023/02/01 09:39:42;;;;;;;12.90;3.28;;;14.00;67.50;;;;;;4944338;28;20531;-85
2023/02/01 09:42:25;;;;;;;8.20;3.00;;;14.10;67.50;;;;;;4939618;28;20527;-85
2023/02/01 09:44:57;;;;;;;9.23;2.70;;;14.10;67.30;;;;;;4945833;29;20448;-84
2023/02/01 09:47:26;;;;;;;10.02;2.65;;;14.10;67.10;;;;;;4938555;28;20035;-81
2023/02/01 09:50:09;;;;;;;10.27;2.83;;;14.20;67.20;;;;;;4947159;28;20042;-82
2023/02/01 09:52:47;;;;;;;10.55;2.70;;;14.10;66.90;;;;;;4945498;28;20395;-82
2023/02/01 09:55:39;;;;;;;8.88;1.95;;;14.10;66.90;;;;;;4930748;28;20069;-83
2023/02/01 09:58:17;;;;;;;7.57;3.10;;;14.10;66.80;;;;;;4930876;28;20050;-84
2023/02/01 10:00:59;;;;;;;10.18;2.38;;;14.10;66.90;;;;;;4958296;28;20132;-81
2023/02/01 10:03:29;;;;;;;14.35;3.38;;;14.10;66.80;;;;;;4964020;28;20677;-78
2023/02/01 10:06:03;;;;;;;13.07;2.90;;;14.20;66.90;;;;;;4947728;28;20107;-77
2023/02/01 10:08:29;;;;;;;9.48;3.17;;;14.20;66.80;;;;;;4958593;28;20281;-82
2023/02/01 10:11:05;;;;;;;11.20;3.90;;;14.30;66.80;;;;;;4936495;28;20034;-80
2023/02/01 10:13:54;;;;;;;10.48;3.13;;;14.40;66.70;;;;;;4954990;28;20033;-83
2023/02/01 10:16:38;;;;;;;8.65;2.30;;;14.40;66.40;;;;;;4963902;28;20423;-84
2023/02/01 10:19:17;;;;;;;10.00;3.33;;;14.40;66.40;;;;;;4957253;28;20079;-79
2023/02/01 10:21:54;;;;;;;10.52;3.22;;;14.50;66.40;;;;;;4936780;28;20062;-81
2023/02/01 10:24:38;;;;;;;10.35;3.53;;;14.50;66.30;;;;;;4934852;28;20046;-80
2023/02/01 10:27:42;;;;;;;7.72;2.70;;;14.50;66.10;;;;;;4949169;28;20035;-80
2023/02/01 10:30:28;;;;;;;12.63;3.55;;;14.50;65.80;;;;;;4922574;29;20218;-80
2023/02/01 10:33:18;;;;;;;18.63;3.97;;;14.40;65.60;;;;;;4931869;29;20070;-85
2023/02/01 10:35:46;;;;;;;11.27;3.83;;;14.20;65.30;;;;;;4947465;28;20478;-85
2023/02/01 10:38:22;;;;;;;18.35;4.05;;;14.10;65.30;;;;;;4946318;28;20044;-85
2023/02/01 10:40:49;;;;;;;15.45;3.67;;;14.00;65.10;;;;;;4954285;28;20039;-85
2023/02/01 10:43:15;;;;;;;12.45;3.38;;;13.90;65.10;;;;;;4953341;28;20050;-84
2023/02/01 10:45:42;;;;;;;15.20;4.63;;;13.90;65.10;;;;;;4940397;28;20126;-79
2023/02/01 10:48:08;;;;;;;16.60;3.42;;;13.80;65.00;;;;;;4944865;28;20039;-80
2023/02/01 10:50:47;;;;;;;16.70;3.70;;;13.70;64.80;;;;;;4946166;28;20118;-79
2023/02/01 10:53:35;;;;;;;11.55;3.75;;;13.70;64.70;;;;;;4954337;28;20364;-79
2023/02/01 10:56:12;;;;;;;16.60;3.30;;;13.70;64.60;;;;;;4944597;28;20043;-79
2023/02/01 10:58:47;;;;;;;11.05;3.30;;;13.70;64.50;;;;;;4950998;28;20031;-79
2023/02/01 11:01:25;;;;;;;13.82;3.13;;;13.70;64.40;;;;;;4946398;28;20199;-79
2023/02/01 11:03:56;;;;;;;11.18;3.55;;;13.70;64.30;;;;;;4942248;28;20043;-79
2023/02/01 11:06:29;;;;;;;10.43;3.05;;;13.70;64.20;;;;;;4948567;28;20562;-79
2023/02/01 11:09:01;;;;;;;19.52;4.40;;;13.80;64.20;;;;;;4938968;28;20415;-78
2023/02/01 11:11:28;;;;;;;16.43;5.30;;;13.80;64.00;;;;;;4945524;29;20398;-77
2023/02/01 11:14:00;;;;;;;14.30;4.40;;;13.90;64.10;;;;;;4947072;28;20277;-84
2023/02/01 11:16:38;;;;;;;13.68;3.75;;;13.90;63.80;;;;;;4931148;29;20031;-83
2023/02/01 11:19:05;;;;;;;11.02;2.60;;;13.90;63.60;;;;;;4929584;29;20045;-81
2023/02/01 11:21:33;;;;;;;11.32;3.10;;;14.00;63.80;;;;;;4940962;28;20031;-79
2023/02/01 11:24:09;;;;;;;10.00;3.10;;;14.00;63.70;;;;;;4945098;28;20103;-79
2023/02/01 11:26:41;;;;;;;12.57;3.20;;;14.10;63.50;;;;;;4938219;29;20448;-79
2023/02/01 11:29:17;;;;;;;12.00;3.55;;;14.10;63.30;;;;;;4940806;28;20419;-79
2023/02/01 11:31:45;;;;;;;13.45;3.28;;;14.20;63.20;;;;;;4941178;29;20028;-79
2023/02/01 11:34:24;;;;;;;10.35;3.35;;;14.10;63.00;;;;;;4941177;29;20238;-82
2023/02/01 11:36:52;;;;;;;11.52;3.90;;;14.20;63.00;;;;;;4944029;29;20196;-79
2023/02/01 11:39:28;;;;;;;13.77;3.40;;;14.10;62.90;;;;;;4945396;28;20035;-84
2023/02/01 11:42:05;;;;;;;9.52;2.63;;;14.10;62.80;;;;;;4940876;28;20035;-81
2023/02/01 11:44:42;;;;;;;16.95;4.78;;;14.10;62.80;;;;;;4945131;28;20073;-77
2023/02/01 11:47:25;;;;;;;11.85;3.63;;;14.20;62.80;;;;;;4938530;28;20518;-81
2023/02/01 11:49:55;;;;;;;11.57;3.53;;;14.20;62.70;;;;;;4933198;28;20043;-81
2023/02/01 11:52:44;;;;;;;10.88;3.65;;;14.10;62.70;;;;;;4952966;28;20046;-80
2023/02/01 11:55:37;;;;;;;7.82;2.30;;;14.20;62.80;;;;;;4943811;28;20043;-78
2023/02/01 11:58:20;;;;;;;11.45;3.75;;;14.40;62.90;;;;;;4967578;28;20024;-80
2023/02/01 12:01:05;;;;;;;10.73;2.90;;;14.50;62.80;;;;;;4931102;28;20071;-80
2023/02/01 12:03:49;;;;;;;8.43;2.78;;;14.60;62.90;;;;;;4945559;28;20042;-80
2023/02/01 12:06:47;;;;;;;8.30;2.90;;;14.70;62.80;;;;;;4955595;28;20038;-85
2023/02/01 12:09:34;;;;;;;10.98;3.22;;;14.80;62.60;;;;;;4947573;28;20435;-86
2023/02/01 12:12:10;;;;;;;12.02;3.00;;;14.80;62.50;;;;;;4958613;28;20047;-84
2023/02/01 12:14:45;;;;;;;12.27;3.03;;;14.90;62.50;;;;;;4959019;28;20549;-85
2023/02/01 12:17:29;;;;;;;13.80;3.42;;;14.90;62.80;;;;;;4948538;28;20031;-91
2023/02/01 12:20:10;;;;;;;16.25;3.03;;;14.90;62.20;;;;;;4941024;29;20518;-80
2023/02/01 12:23:06;;;;;;;12.73;3.53;;;15.00;62.10;;;;;;4964730;28;20031;-81
2023/02/01 12:25:47;;;;;;;10.50;3.03;;;15.00;62.00;;;;;;4949259;28;20058;-80
2023/02/01 12:28:51;;;;;;;14.20;3.10;;;15.00;62.10;;;;;;4946190;28;20067;-80
2023/02/01 12:31:27;;;;;;;14.00;3.17;;;15.00;61.70;;;;;;4936069;28;20035;-81
2023/02/01 12:34:17;;;;;;;18.10;4.05;;;15.00;61.80;;;;;;4936602;29;20031;-81
2023/02/01 12:36:58;;;;;;;15.40;4.43;;;15.10;61.90;;;;;;4957818;28;20039;-82
2023/02/01 12:39:37;;;;;;;8.43;3.25;;;15.10;61.70;;;;;;4947154;28;20035;-80
2023/02/01 12:42:13;;;;;;;11.93;3.92;;;15.10;61.90;;;;;;4943112;28;20038;-81
2023/02/01 12:45:10;;;;;;;11.75;3.47;;;15.10;61.50;;;;;;4954852;28;20357;-79
2023/02/01 12:47:51;;;;;;;13.75;3.80;;;15.10;61.40;;;;;;4944006;28;20506;-78
2023/02/01 12:50:28;;;;;;;12.32;3.22;;;15.10;61.50;;;;;;4948937;28;20027;-79
2023/02/01 12:53:20;;;;;;;11.45;3.28;;;15.10;61.50;;;;;;4956709;28;20043;-81
2023/02/01 12:56:13;;;;;;;16.85;2.70;;;15.10;61.40;;;;;;4950742;28;20058;-79
2023/02/01 12:58:39;;;;;;;10.65;3.30;;;15.10;61.40;;;;;;4932871;28;20035;-78
2023/02/01 13:01:28;;;;;;;10.07;3.13;;;15.10;61.40;;;;;;4942743;28;20027;-78
2023/02/01 13:04:24;;;;;;;9.85;3.30;;;15.10;61.10;;;;;;4947580;28;20046;-79
2023/02/01 13:07:12;;;;;;;12.68;4.15;;;15.10;61.10;;;;;;4953040;28;20038;-80
2023/02/01 13:09:53;;;;;;;11.70;3.03;;;15.10;61.10;;;;;;4942731;28;20109;-82
2023/02/01 13:12:31;;;;;;;13.70;3.47;;;15.10;61.30;;;;;;4944893;28;20031;-79
2023/02/01 13:15:17;;;;;;;9.68;3.30;;;15.10;61.20;;;;;;4943856;29;20069;-79
2023/02/01 13:17:46;;;;;;;9.48;3.15;;;15.10;61.10;;;;;;4945348;28;20058;-80
2023/02/01 13:20:33;;;;;;;14.45;4.25;;;15.00;61.00;;;;;;4945059;28;20097;-81
2023/02/01 13:23:23;;;;;;;14.75;4.05;;;15.00;60.90;;;;;;4934570;29;20047;-81
2023/02/01 13:25:52;;;;;;;18.65;3.80;;;14.90;60.70;;;;;;4944047;28;20055;-79
2023/02/01 13:28:32;;;;;;;17.02;3.25;;;14.90;61.00;;;;;;4938960;28;20051;-78
2023/02/01 13:31:10;;;;;;;18.20;5.50;;;14.90;60.80;;;;;;4933195;29;20435;-79